Time;durP1;ratioP1;P1;durP2;ratioP2;P2;SDS_P1;SDS_P2;PMS_P1;PMS_P2;Temp;Humidity;BMP_temperature;BMP_pressure;BME280_temperature;BME280_humidity;BME280_pressure;Samples;Min_cycle;Max_cycle;Signal;HPM_P1;HPM_P2
2022/05/16 00:01:49;;;;;;;8.20;3.10;;;13.10;99.90;;;;;;5053953;28;20045;-63
2022/05/16 00:04:15;;;;;;;8.75;4.28;;;13.20;99.90;;;;;;5048808;28;20132;-63
2022/05/16 00:06:40;;;;;;;11.90;4.28;;;13.20;99.90;;;;;;5052430;28;20029;-63
2022/05/16 00:09:06;;;;;;;9.13;3.72;;;13.20;99.90;;;;;;5048257;28;20056;-63
2022/05/16 00:11:32;;;;;;;10.60;4.45;;;13.20;99.90;;;;;;5049464;28;20036;-63
2022/05/16 00:13:58;;;;;;;11.30;2.97;;;13.20;99.90;;;;;;5049870;28;20558;-63
2022/05/16 00:16:24;;;;;;;8.50;3.20;;;13.10;99.90;;;;;;5049677;28;20056;-63
2022/05/16 00:18:51;;;;;;;12.50;4.05;;;13.10;99.90;;;;;;5048783;28;20036;-63
2022/05/16 00:21:17;;;;;;;13.25;3.63;;;13.10;99.90;;;;;;5086644;28;20048;-63
2022/05/16 00:23:43;;;;;;;11.05;3.63;;;13.10;99.90;;;;;;5047589;28;20037;-63
2022/05/16 00:26:09;;;;;;;8.23;3.40;;;13.00;99.90;;;;;;5084808;28;20045;-63
2022/05/16 00:28:34;;;;;;;8.95;3.15;;;13.10;99.90;;;;;;5049631;28;20075;-63
2022/05/16 00:31:00;;;;;;;13.25;3.67;;;13.10;99.90;;;;;;5053612;28;20139;-63
2022/05/16 00:33:25;;;;;;;9.10;3.42;;;13.10;99.90;;;;;;5049221;28;20141;-63
2022/05/16 00:35:51;;;;;;;10.90;3.28;;;13.00;99.90;;;;;;5053448;28;20067;-63
2022/05/16 00:38:16;;;;;;;8.77;2.97;;;13.10;99.90;;;;;;5033403;28;20045;-63
2022/05/16 00:40:42;;;;;;;10.68;3.60;;;13.10;99.90;;;;;;5047242;28;20045;-63
2022/05/16 00:43:11;;;;;;;8.40;3.28;;;13.10;99.90;;;;;;5048164;28;20033;-63
2022/05/16 00:45:38;;;;;;;8.35;2.88;;;13.10;99.90;;;;;;5049833;28;20072;-63
2022/05/16 00:48:05;;;;;;;8.68;3.08;;;13.10;99.90;;;;;;5050111;28;20041;-62
2022/05/16 00:50:33;;;;;;;17.33;4.25;;;13.10;99.90;;;;;;5049663;28;20071;-63
2022/05/16 00:52:59;;;;;;;10.38;3.30;;;13.10;99.90;;;;;;5081597;28;20064;-62
2022/05/16 00:55:32;;;;;;;8.73;3.28;;;13.10;99.90;;;;;;5049384;28;20067;-62
2022/05/16 00:58:08;;;;;;;6.35;3.15;;;13.10;99.90;;;;;;5078948;28;20128;-63
2022/05/16 01:00:39;;;;;;;9.05;2.88;;;13.00;99.90;;;;;;5052670;28;20036;-63
2022/05/16 01:06:09;;;;;;;7.95;2.88;;;13.10;99.90;;;;;;5046145;28;20068;-63
2022/05/16 01:08:38;;;;;;;7.32;3.05;;;13.10;99.90;;;;;;5076694;28;20079;-63
2022/05/16 01:11:10;;;;;;;8.90;3.33;;;13.00;99.90;;;;;;5064817;28;20184;-63
2022/05/16 01:13:35;;;;;;;8.95;2.47;;;13.10;99.90;;;;;;5047972;28;20045;-63
2022/05/16 01:16:03;;;;;;;9.25;2.55;;;13.00;99.90;;;;;;5076937;28;20044;-63
2022/05/16 01:18:28;;;;;;;9.07;2.95;;;13.10;99.90;;;;;;5050002;28;20059;-63
2022/05/16 01:21:52;;;;;;;8.18;2.53;;;13.10;99.90;;;;;;5047893;28;20032;-63
2022/05/16 01:24:18;;;;;;;8.88;2.80;;;13.10;99.90;;;;;;5039132;28;20037;-63
2022/05/16 01:26:43;;;;;;;7.10;2.60;;;13.30;99.90;;;;;;5037723;28;20111;-62
2022/05/16 01:29:10;;;;;;;8.30;2.72;;;13.30;99.90;;;;;;5046867;28;20056;-63
2022/05/16 01:31:36;;;;;;;6.97;2.90;;;13.40;99.90;;;;;;5047176;28;20052;-63
2022/05/16 01:34:03;;;;;;;6.55;2.53;;;13.30;99.90;;;;;;5048549;28;20053;-63
2022/05/16 01:36:28;;;;;;;5.95;2.58;;;13.40;99.90;;;;;;5049484;28;20380;-63
2022/05/16 01:38:54;;;;;;;7.95;2.55;;;13.40;99.90;;;;;;5046415;28;20043;-63
2022/05/16 01:41:25;;;;;;;7.25;2.63;;;13.40;99.90;;;;;;5049625;28;20044;-62
2022/05/16 01:43:55;;;;;;;6.88;2.95;;;13.50;99.90;;;;;;5079833;28;20044;-63
2022/05/16 01:46:34;;;;;;;11.23;2.63;;;13.50;99.90;;;;;;5048058;28;20091;-63
2022/05/16 01:49:00;;;;;;;5.10;2.70;;;13.50;99.90;;;;;;5049078;28;20049;-63
2022/05/16 01:51:26;;;;;;;8.05;2.60;;;13.50;99.90;;;;;;5030122;28;20161;-63
2022/05/16 01:53:52;;;;;;;6.95;2.50;;;13.50;99.90;;;;;;5052525;28;20556;-63
2022/05/16 01:56:18;;;;;;;8.40;3.25;;;13.50;99.90;;;;;;5051835;28;20048;-63
2022/05/16 01:58:44;;;;;;;12.05;2.75;;;13.50;99.90;;;;;;5046539;28;20037;-63
2022/05/16 02:01:12;;;;;;;5.78;3.03;;;13.50;99.90;;;;;;5050925;28;20048;-64
2022/05/16 02:03:39;;;;;;;9.32;2.70;;;13.50;99.90;;;;;;5077111;28;20110;-63
2022/05/16 02:06:05;;;;;;;7.60;3.08;;;13.40;99.90;;;;;;5047123;28;20048;-63
2022/05/16 02:08:31;;;;;;;8.38;3.00;;;13.40;99.90;;;;;;5051073;28;20491;-64
2022/05/16 02:10:56;;;;;;;8.70;2.35;;;13.40;99.90;;;;;;5050028;28;20061;-63
2022/05/16 02:13:22;;;;;;;11.30;3.30;;;13.40;99.90;;;;;;5046164;28;20053;-63
2022/05/16 02:15:47;;;;;;;10.68;2.75;;;13.40;99.90;;;;;;5049939;28;20060;-63
2022/05/16 02:18:13;;;;;;;6.03;2.10;;;13.30;99.90;;;;;;5051888;28;20049;-63
2022/05/16 02:20:39;;;;;;;9.48;2.78;;;13.30;99.90;;;;;;5050610;28;20045;-63
2022/05/16 02:25:51;;;;;;;7.90;2.70;;;13.30;99.90;;;;;;5049855;28;20037;-63
2022/05/16 02:28:19;;;;;;;7.32;2.78;;;13.30;99.90;;;;;;5047073;28;20060;-63
2022/05/16 02:30:45;;;;;;;10.02;3.40;;;13.20;99.90;;;;;;5061513;28;20043;-63
2022/05/16 02:33:13;;;;;;;10.27;2.72;;;13.30;99.90;;;;;;5079877;28;20123;-63
2022/05/16 02:35:39;;;;;;;9.32;3.30;;;13.20;99.90;;;;;;5047558;28;20049;-63
2022/05/16 02:38:06;;;;;;;10.20;3.22;;;13.20;99.90;;;;;;5029379;28;20051;-63
2022/05/16 02:40:34;;;;;;;10.35;3.35;;;13.20;99.90;;;;;;5051168;28;20037;-63
2022/05/16 02:43:00;;;;;;;8.38;2.75;;;13.20;99.90;;;;;;5044003;28;20048;-63
2022/05/16 02:45:27;;;;;;;7.45;2.95;;;13.20;99.90;;;;;;5048240;28;20040;-63
2022/05/16 02:47:53;;;;;;;8.02;2.50;;;13.20;99.90;;;;;;5050243;28;20448;-63
2022/05/16 02:50:23;;;;;;;6.72;2.42;;;13.10;99.90;;;;;;5048687;28;20072;-63
2022/05/16 02:52:50;;;;;;;10.15;3.00;;;13.10;99.90;;;;;;5050005;28;20128;-63
2022/05/16 02:55:16;;;;;;;6.80;2.28;;;13.10;99.90;;;;;;5052849;28;20041;-63
2022/05/16 02:57:41;;;;;;;7.05;2.65;;;13.10;99.90;;;;;;5083220;28;20094;-63
2022/05/16 03:00:09;;;;;;;5.35;2.35;;;13.00;99.90;;;;;;5051092;28;20116;-64
2022/05/16 03:02:38;;;;;;;6.60;2.95;;;13.00;99.90;;;;;;5050765;28;20076;-63
2022/05/16 03:05:05;;;;;;;8.10;2.70;;;13.00;99.90;;;;;;5080842;28;20133;-63
2022/05/16 03:07:30;;;;;;;8.10;2.90;;;13.00;99.90;;;;;;5054250;28;20059;-63
2022/05/16 03:09:56;;;;;;;9.25;2.33;;;12.90;99.90;;;;;;5052024;28;20040;-63
2022/05/16 03:12:21;;;;;;;4.90;2.53;;;13.00;99.90;;;;;;5054729;28;20571;-63
2022/05/16 03:14:47;;;;;;;9.80;2.15;;;13.00;99.90;;;;;;5052177;28;20438;-64
2022/05/16 03:17:12;;;;;;;6.93;2.63;;;12.90;99.90;;;;;;5050421;28;20037;-63
2022/05/16 03:19:38;;;;;;;6.75;2.20;;;12.90;99.90;;;;;;5080417;28;20036;-63
2022/05/16 03:22:05;;;;;;;7.18;2.40;;;12.90;99.90;;;;;;5053912;28;20059;-63
2022/05/16 03:24:32;;;;;;;9.07;2.50;;;12.90;99.90;;;;;;5084240;28;20047;-63
2022/05/16 03:26:58;;;;;;;5.22;2.15;;;12.90;99.90;;;;;;5050618;28;20798;-63
2022/05/16 03:29:24;;;;;;;8.82;3.08;;;12.90;99.90;;;;;;5051048;28;20041;-63
2022/05/16 03:31:50;;;;;;;5.90;2.33;;;12.80;99.90;;;;;;5049390;28;20700;-63
2022/05/16 03:34:15;;;;;;;6.40;2.22;;;12.90;99.90;;;;;;5048948;28;20072;-63
2022/05/16 03:36:41;;;;;;;6.90;2.03;;;12.80;99.90;;;;;;5055818;28;20075;-63
2022/05/16 03:41:52;;;;;;;5.85;2.55;;;12.90;99.90;;;;;;5054098;28;20441;-63
2022/05/16 03:44:18;;;;;;;7.00;2.30;;;12.80;99.90;;;;;;5055258;28;20055;-63
2022/05/16 03:46:44;;;;;;;13.57;2.45;;;12.80;99.90;;;;;;5047398;28;20037;-63
2022/05/16 03:49:10;;;;;;;5.90;2.40;;;12.80;99.90;;;;;;5081397;28;20045;-63
2022/05/16 03:51:36;;;;;;;7.30;2.50;;;12.90;99.90;;;;;;5049979;28;20037;-63
2022/05/16 03:54:02;;;;;;;7.05;2.20;;;12.80;99.90;;;;;;5049811;28;20040;-63
2022/05/16 03:56:28;;;;;;;5.25;2.45;;;12.80;99.90;;;;;;5052183;28;20783;-63
2022/05/16 03:58:55;;;;;;;5.53;1.67;;;12.80;99.90;;;;;;5052664;28;20037;-63
2022/05/16 04:01:21;;;;;;;7.00;2.30;;;12.80;99.90;;;;;;5048980;28;20045;-63
2022/05/16 04:03:47;;;;;;;5.97;2.35;;;12.90;99.90;;;;;;5046726;28;20080;-63
2022/05/16 04:06:17;;;;;;;8.30;2.50;;;12.90;99.90;;;;;;5050447;28;20150;-63
2022/05/16 04:08:43;;;;;;;6.57;1.73;;;12.90;99.90;;;;;;5055550;28;20048;-63
2022/05/16 04:11:10;;;;;;;11.23;2.00;;;13.00;99.90;;;;;;5050392;28;20403;-63
2022/05/16 04:13:37;;;;;;;3.67;1.70;;;13.00;99.90;;;;;;5048538;28;20203;-63
2022/05/16 04:16:04;;;;;;;5.93;1.63;;;13.00;99.90;;;;;;5049100;28;20459;-63
2022/05/16 04:18:32;;;;;;;6.40;2.08;;;13.20;99.90;;;;;;5048362;28;20746;-63
2022/05/16 04:20:58;;;;;;;5.45;2.00;;;13.30;99.90;;;;;;5047549;28;20519;-63
2022/05/16 04:23:24;;;;;;;7.18;1.85;;;13.40;99.90;;;;;;5051287;28;20127;-63
2022/05/16 04:25:50;;;;;;;3.97;1.58;;;13.50;99.90;;;;;;5054127;28;20040;-63
2022/05/16 04:28:15;;;;;;;4.22;1.67;;;13.70;99.90;;;;;;5047869;28;20693;-63
2022/05/16 04:30:42;;;;;;;5.22;1.90;;;13.80;99.90;;;;;;5048112;28;20053;-63
2022/05/16 04:33:08;;;;;;;7.97;2.63;;;13.80;99.90;;;;;;5053205;28;20037;-63
2022/05/16 04:35:36;;;;;;;13.20;2.28;;;13.80;99.90;;;;;;5048172;28;20045;-64
2022/05/16 04:38:04;;;;;;;7.00;1.75;;;13.80;99.90;;;;;;5054234;28;20132;-63
2022/05/16 04:40:29;;;;;;;6.25;2.42;;;13.80;99.90;;;;;;5050044;28;20455;-63
2022/05/16 04:42:55;;;;;;;11.18;2.00;;;13.60;99.90;;;;;;5080212;28;20128;-63
2022/05/16 04:45:24;;;;;;;5.88;2.22;;;13.60;99.90;;;;;;5050385;28;20056;-63
2022/05/16 04:47:55;;;;;;;8.13;1.98;;;13.70;99.90;;;;;;5047416;28;20044;-63
2022/05/16 04:50:32;;;;;;;4.75;1.67;;;13.70;99.90;;;;;;5051121;28;20064;-63
2022/05/16 04:52:58;;;;;;;5.10;1.92;;;13.70;99.90;;;;;;5047778;28;20171;-64
2022/05/16 04:55:26;;;;;;;5.05;2.17;;;13.70;99.90;;;;;;5048548;28;20072;-63
2022/05/16 04:57:52;;;;;;;6.40;2.08;;;13.70;99.90;;;;;;5060400;28;20047;-63
2022/05/16 05:00:20;;;;;;;6.82;2.30;;;13.70;99.90;;;;;;5052770;28;20036;-63
2022/05/16 05:02:46;;;;;;;8.43;2.10;;;13.70;99.90;;;;;;5052907;28;20075;-63
2022/05/16 05:05:14;;;;;;;6.45;2.25;;;13.80;99.90;;;;;;5052850;28;20060;-63
2022/05/16 05:07:41;;;;;;;6.70;2.20;;;14.00;99.90;;;;;;5078863;28;20099;-63
2022/05/16 05:15:38;;;;;;;3.95;1.90;;;15.70;99.90;;;;;;5046394;28;20045;-63
2022/05/16 05:18:05;;;;;;;6.57;1.85;;;16.70;99.90;;;;;;5081151;28;20057;-64
2022/05/16 05:20:32;;;;;;;5.55;1.92;;;17.70;99.90;;;;;;5028741;28;20052;-64
2022/05/16 05:22:59;;;;;;;9.07;1.90;;;18.40;99.90;;;;;;5077379;28;20090;-64
2022/05/16 05:25:25;;;;;;;6.88;1.92;;;18.30;99.90;;;;;;5049997;28;20551;-64
2022/05/16 05:27:51;;;;;;;7.80;2.50;;;18.40;99.90;;;;;;5049306;28;20123;-64
2022/05/16 05:30:20;;;;;;;3.72;1.80;;;18.20;99.90;;;;;;5078176;28;20043;-64
2022/05/16 05:32:47;;;;;;;8.23;1.85;;;17.90;99.90;;;;;;5049144;28;20045;-63
2022/05/16 05:35:14;;;;;;;8.65;1.48;;;17.90;99.90;;;;;;5076882;28;20807;-63
2022/05/16 05:37:40;;;;;;;6.70;2.03;;;17.90;99.90;;;;;;5047707;28;20128;-64
2022/05/16 05:40:06;;;;;;;5.13;1.70;;;17.80;99.90;;;;;;5080808;28;20127;-63
2022/05/16 05:42:33;;;;;;;5.85;1.90;;;17.70;99.90;;;;;;5049835;28;20032;-64
2022/05/16 05:45:00;;;;;;;7.05;2.17;;;17.80;99.90;;;;;;5034597;28;20208;-64
2022/05/16 05:47:26;;;;;;;7.10;2.08;;;17.80;99.90;;;;;;5048013;28;20044;-64
2022/05/16 05:49:52;;;;;;;8.18;2.22;;;17.70;99.90;;;;;;5048422;28;20040;-64
2022/05/16 05:52:18;;;;;;;6.10;1.98;;;17.80;99.90;;;;;;5048900;28;20086;-64
2022/05/16 05:54:45;;;;;;;6.47;1.58;;;18.00;99.90;;;;;;5049746;28;20041;-63
2022/05/16 05:57:12;;;;;;;7.80;2.13;;;18.30;99.90;;;;;;5080579;28;20052;-64
2022/05/16 05:59:38;;;;;;;6.45;1.88;;;18.30;99.90;;;;;;5051903;28;20041;-63
2022/05/16 06:02:06;;;;;;;6.30;1.90;;;18.50;99.10;;;;;;5049043;28;20036;-64
2022/05/16 06:04:32;;;;;;;7.88;1.85;;;18.80;99.70;;;;;;5051148;28;20041;-64
2022/05/16 06:06:58;;;;;;;7.25;2.30;;;19.00;99.40;;;;;;5046293;28;20036;-63
2022/05/16 06:09:23;;;;;;;6.97;1.98;;;19.20;98.20;;;;;;5042202;28;20513;-64
2022/05/16 06:11:49;;;;;;;8.52;1.98;;;19.10;97.30;;;;;;5073730;28;20037;-64
2022/05/16 06:14:16;;;;;;;7.90;1.65;;;19.10;97.30;;;;;;5041495;28;20029;-64
2022/05/16 06:16:42;;;;;;;5.75;1.73;;;19.10;97.90;;;;;;5044305;28;20080;-64
2022/05/16 06:19:11;;;;;;;11.82;2.00;;;19.10;97.60;;;;;;5046264;28;20084;-63
2022/05/16 06:21:38;;;;;;;7.63;1.83;;;19.30;97.30;;;;;;5051129;28;20049;-64
2022/05/16 06:24:04;;;;;;;8.10;2.30;;;19.50;97.20;;;;;;5047113;28;20048;-64
2022/05/16 06:26:31;;;;;;;8.50;1.88;;;19.70;97.40;;;;;;5043662;28;20386;-63
2022/05/16 06:28:57;;;;;;;9.18;1.95;;;19.90;96.80;;;;;;5049681;28;20624;-63
2022/05/16 06:31:23;;;;;;;6.25;1.85;;;20.00;95.70;;;;;;5047731;28;20075;-63
2022/05/16 06:33:49;;;;;;;6.75;1.75;;;20.20;95.70;;;;;;5051998;28;20056;-63
2022/05/16 06:36:16;;;;;;;7.80;1.73;;;20.50;96.10;;;;;;5051336;28;20047;-63
2022/05/16 06:38:42;;;;;;;10.25;1.73;;;20.70;95.70;;;;;;5082598;28;20044;-63
2022/05/16 06:41:08;;;;;;;5.30;1.63;;;20.80;95.50;;;;;;5054508;28;20033;-64
2022/05/16 06:43:34;;;;;;;8.27;1.98;;;21.00;94.90;;;;;;5051143;28;20605;-63
2022/05/16 06:46:02;;;;;;;9.90;2.25;;;21.00;94.40;;;;;;5055311;28;20043;-63
2022/05/16 06:48:28;;;;;;;12.98;2.17;;;21.20;93.10;;;;;;5082335;28;20040;-63
2022/05/16 06:50:55;;;;;;;4.72;1.98;;;21.10;92.30;;;;;;5042842;28;20043;-63
2022/05/16 06:53:24;;;;;;;8.70;2.92;;;21.00;92.70;;;;;;5053500;28;20043;-63
2022/05/16 06:55:50;;;;;;;8.90;2.25;;;20.90;92.30;;;;;;5081524;28;20049;-63
2022/05/16 06:58:16;;;;;;;7.03;1.98;;;21.00;92.60;;;;;;5052486;28;20495;-63
2022/05/16 07:00:42;;;;;;;5.53;1.77;;;20.90;92.90;;;;;;5051729;28;20082;-63
2022/05/16 07:03:09;;;;;;;12.45;2.63;;;21.10;93.20;;;;;;5052036;28;20044;-63
2022/05/16 07:05:35;;;;;;;5.65;2.58;;;21.30;92.80;;;;;;5047514;28;20424;-63
2022/05/16 07:08:00;;;;;;;5.07;2.10;;;21.50;91.90;;;;;;5083081;28;20037;-63
2022/05/16 07:10:26;;;;;;;8.00;2.97;;;21.50;91.80;;;;;;5037051;28;20056;-63
2022/05/16 07:12:52;;;;;;;11.30;1.98;;;21.50;91.10;;;;;;5052119;28;20036;-63
2022/05/16 07:15:19;;;;;;;6.68;2.28;;;21.50;91.60;;;;;;5056373;28;20076;-63
2022/05/16 07:17:45;;;;;;;7.03;2.33;;;21.60;91.40;;;;;;5046783;28;20041;-63
2022/05/16 07:20:11;;;;;;;6.85;2.30;;;21.60;90.70;;;;;;5051522;28;20510;-63
2022/05/16 07:22:42;;;;;;;6.32;3.30;;;21.60;91.00;;;;;;5049769;28;20048;-63
2022/05/16 07:25:09;;;;;;;4.70;2.25;;;21.70;91.60;;;;;;5084871;28;20037;-63
2022/05/16 07:30:19;;;;;;;9.73;2.53;;;21.80;90.80;;;;;;5048327;28;20049;-63
2022/05/16 07:32:46;;;;;;;6.00;1.98;;;21.70;90.00;;;;;;5051613;28;20045;-63
2022/05/16 07:35:22;;;;;;;7.47;1.83;;;21.70;90.30;;;;;;5052250;28;20661;-63
2022/05/16 07:37:48;;;;;;;8.07;2.05;;;21.70;90.20;;;;;;5047717;28;20681;-63
2022/05/16 07:40:14;;;;;;;7.22;2.20;;;21.80;90.50;;;;;;5052657;28;20438;-63
2022/05/16 07:42:40;;;;;;;7.35;2.83;;;21.80;89.70;;;;;;5048692;28;20041;-63
2022/05/16 07:45:07;;;;;;;7.30;2.75;;;21.50;90.10;;;;;;5055821;28;20372;-63
2022/05/16 07:47:33;;;;;;;6.53;1.77;;;21.70;90.10;;;;;;5050785;28;20036;-63
2022/05/16 07:50:00;;;;;;;8.05;1.98;;;21.70;90.40;;;;;;5051893;28;20049;-63
2022/05/16 07:52:27;;;;;;;8.75;2.45;;;21.90;90.30;;;;;;5052638;28;20472;-63
2022/05/16 07:54:53;;;;;;;8.77;1.85;;;22.00;88.80;;;;;;5054317;28;20441;-63
2022/05/16 07:57:19;;;;;;;7.18;2.22;;;22.10;89.50;;;;;;5047725;28;20041;-63
2022/05/16 07:59:46;;;;;;;6.93;2.10;;;22.10;89.10;;;;;;5047622;28;20084;-63
2022/05/16 08:02:13;;;;;;;8.48;2.38;;;22.40;89.30;;;;;;5051360;28;20058;-63
2022/05/16 08:04:39;;;;;;;7.55;1.95;;;22.50;87.20;;;;;;5057680;28;20114;-63
2022/05/16 08:07:05;;;;;;;9.35;2.03;;;22.50;85.60;;;;;;5050541;28;20086;-63
2022/05/16 08:12:29;;;;;;;14.65;2.25;;;22.50;87.00;;;;;;5050286;28;20045;-63
2022/05/16 08:14:55;;;;;;;10.13;1.73;;;22.70;87.50;;;;;;5051159;28;20037;-63
2022/05/16 08:17:22;;;;;;;8.85;2.28;;;22.90;87.60;;;;;;5046742;28;20040;-63
2022/05/16 08:19:49;;;;;;;6.85;1.77;;;23.00;86.90;;;;;;5052409;28;20178;-63
2022/05/16 08:22:17;;;;;;;6.88;1.98;;;23.30;88.50;;;;;;5045807;28;20523;-64
2022/05/16 08:24:44;;;;;;;6.88;2.10;;;23.40;85.40;;;;;;5049185;28;20083;-63
2022/05/16 08:27:10;;;;;;;9.70;1.67;;;23.60;86.10;;;;;;5041358;28;20048;-63
2022/05/16 08:29:36;;;;;;;8.13;2.20;;;23.90;87.00;;;;;;5046728;28;20407;-64
2022/05/16 08:32:03;;;;;;;6.75;2.28;;;24.10;85.10;;;;;;5046894;28;20040;-63
2022/05/16 08:34:29;;;;;;;7.95;1.90;;;24.30;82.30;;;;;;5040357;28;20479;-64
2022/05/16 08:39:55;;;;;;;14.48;2.90;;;24.70;83.10;;;;;;4978325;28;20050;-63
2022/05/16 08:42:50;;;;;;;6.03;1.63;;;24.90;81.00;;;;;;5043963;28;20065;-63
2022/05/16 08:45:26;;;;;;;8.65;2.25;;;24.70;78.50;;;;;;5042216;28;20052;-64
2022/05/16 08:48:26;;;;;;;30.35;2.10;;;24.60;79.50;;;;;;5047055;28;20163;-64
2022/05/16 08:50:57;;;;;;;7.15;2.65;;;24.60;79.20;;;;;;5042605;28;20160;-64
2022/05/16 08:53:25;;;;;;;5.82;1.92;;;24.70;80.50;;;;;;5074879;28;20037;-64
2022/05/16 08:55:54;;;;;;;7.70;2.42;;;24.90;79.70;;;;;;5047123;28;20739;-64
2022/05/16 08:58:34;;;;;;;9.80;2.30;;;25.20;77.90;;;;;;5048215;28;20051;-64
2022/05/16 09:01:24;;;;;;;5.55;1.80;;;25.30;76.90;;;;;;5081984;28;20064;-64
2022/05/16 09:04:09;;;;;;;7.82;2.08;;;25.40;75.40;;;;;;5039527;28;20100;-64
2022/05/16 09:07:01;;;;;;;12.35;2.70;;;25.50;76.40;;;;;;5046109;28;20033;-64
2022/05/16 09:10:05;;;;;;;5.95;1.90;;;25.70;75.20;;;;;;5049373;28;20125;-64
2022/05/16 09:12:49;;;;;;;13.38;1.75;;;25.90;75.40;;;;;;5052704;28;20053;-63
2022/05/16 09:15:17;;;;;;;12.43;1.95;;;25.90;73.90;;;;;;5082029;28;20047;-64
2022/05/16 09:18:01;;;;;;;8.98;2.70;;;26.00;74.90;;;;;;5049670;28;20036;-63
2022/05/16 09:20:44;;;;;;;8.35;2.03;;;26.10;74.20;;;;;;5048338;28;20036;-64
2022/05/16 09:23:28;;;;;;;9.50;1.75;;;26.20;72.70;;;;;;5041639;28;20076;-64
2022/05/16 09:26:19;;;;;;;10.65;2.38;;;26.20;71.60;;;;;;5041878;28;20094;-64
2022/05/16 09:28:50;;;;;;;8.93;1.98;;;26.20;71.50;;;;;;5079667;28;20072;-64
2022/05/16 09:31:27;;;;;;;13.57;2.85;;;26.10;73.40;;;;;;5075304;28;20507;-64
2022/05/16 09:33:56;;;;;;;8.23;2.20;;;26.00;73.20;;;;;;5078108;28;20047;-64
2022/05/16 09:36:26;;;;;;;10.65;2.38;;;25.90;72.90;;;;;;5046167;28;20041;-64
2022/05/16 09:38:52;;;;;;;10.73;2.05;;;25.80;72.80;;;;;;5062793;28;20076;-64
2022/05/16 09:42:02;;;;;;;14.48;2.20;;;25.90;72.50;;;;;;5079119;28;20063;-64
2022/05/16 09:44:50;;;;;;;9.68;2.42;;;26.10;73.30;;;;;;4979073;28;20155;-64
2022/05/16 09:47:40;;;;;;;12.18;2.53;;;26.30;73.20;;;;;;5008964;28;20055;-64
2022/05/16 09:50:32;;;;;;;7.15;2.15;;;26.30;72.00;;;;;;5047544;28;20079;-64
2022/05/16 09:53:01;;;;;;;6.55;2.42;;;26.50;74.50;;;;;;5038105;28;20061;-64
2022/05/16 09:55:44;;;;;;;6.43;1.98;;;26.30;72.30;;;;;;5046594;28;20084;-63
2022/05/16 09:58:20;;;;;;;9.23;2.45;;;26.30;72.40;;;;;;5048546;28;20120;-64
2022/05/16 10:00:54;;;;;;;13.13;2.15;;;26.20;72.70;;;;;;5047077;28;20120;-64
2022/05/16 10:03:43;;;;;;;9.10;2.35;;;26.20;73.10;;;;;;5043931;28;20128;-64
2022/05/16 10:06:26;;;;;;;8.27;1.95;;;26.10;73.60;;;;;;5037740;28;20048;-64
2022/05/16 10:08:52;;;;;;;4.95;1.80;;;26.20;73.50;;;;;;5051382;28;20040;-64
2022/05/16 10:11:28;;;;;;;9.95;2.25;;;26.40;72.70;;;;;;5086353;28;20541;-64
2022/05/16 10:13:55;;;;;;;10.52;2.38;;;26.60;72.40;;;;;;5056494;28;20051;-64
2022/05/16 10:16:23;;;;;;;12.30;2.13;;;26.70;71.20;;;;;;5054820;28;20032;-64
2022/05/16 10:18:54;;;;;;;7.53;2.13;;;26.70;71.70;;;;;;5054331;28;20516;-64
2022/05/16 10:21:32;;;;;;;10.52;2.30;;;26.70;71.40;;;;;;5084241;28;20087;-64
2022/05/16 10:23:59;;;;;;;6.97;2.72;;;26.70;72.30;;;;;;5034252;28;20052;-64
2022/05/16 10:26:30;;;;;;;9.60;3.03;;;26.70;70.50;;;;;;5036876;28;20061;-64
2022/05/16 10:29:06;;;;;;;6.80;2.08;;;26.70;67.90;;;;;;5050269;28;20438;-64
2022/05/16 10:34:55;;;;;;;11.73;2.55;;;26.50;70.00;;;;;;5050277;28;20048;-64
2022/05/16 10:37:23;;;;;;;8.60;2.10;;;26.40;70.40;;;;;;5048865;28;20131;-64
2022/05/16 10:39:59;;;;;;;10.90;2.30;;;26.30;69.60;;;;;;5042830;28;20049;-64
2022/05/16 10:42:46;;;;;;;8.48;2.33;;;26.20;69.20;;;;;;5042515;28;20483;-64
2022/05/16 10:45:19;;;;;;;5.50;1.95;;;26.10;68.30;;;;;;5044285;28;20127;-64
2022/05/16 10:48:09;;;;;;;10.00;2.42;;;25.90;68.30;;;;;;5046825;28;20231;-64
2022/05/16 10:50:49;;;;;;;7.10;2.03;;;25.70;68.50;;;;;;5045908;28;20037;-62
2022/05/16 10:53:27;;;;;;;6.40;2.47;;;25.40;69.40;;;;;;5048289;28;20056;-62
2022/05/16 10:56:05;;;;;;;7.13;2.60;;;25.30;70.10;;;;;;5049770;28;20036;-61
2022/05/16 10:59:01;;;;;;;12.15;2.60;;;25.10;71.20;;;;;;5048937;28;20051;-63
2022/05/16 11:01:53;;;;;;;9.27;2.88;;;25.00;73.00;;;;;;5048727;28;20049;-62
2022/05/16 11:04:24;;;;;;;8.90;2.17;;;24.80;76.90;;;;;;5078945;28;20053;-62
2022/05/16 11:07:08;;;;;;;9.68;2.35;;;24.70;79.00;;;;;;5056148;28;20052;-62
2022/05/16 11:09:57;;;;;;;8.07;2.28;;;24.60;80.30;;;;;;5057357;28;20047;-61
2022/05/16 11:12:34;;;;;;;10.88;3.15;;;24.40;83.30;;;;;;5052560;28;20382;-61
2022/05/16 11:15:14;;;;;;;11.80;3.08;;;24.20;86.00;;;;;;5055774;28;20076;-61
2022/05/16 11:17:44;;;;;;;12.98;2.55;;;24.10;88.90;;;;;;5048985;28;20475;-62
2022/05/16 11:20:32;;;;;;;6.53;2.45;;;24.00;88.80;;;;;;5056533;28;20403;-62
2022/05/16 11:23:36;;;;;;;7.43;2.47;;;24.00;90.20;;;;;;5054055;28;20402;-61
2022/05/16 11:26:53;;;;;;;8.50;2.95;;;23.90;92.00;;;;;;4993534;28;20065;-61
2022/05/16 11:29:32;;;;;;;10.93;2.50;;;23.80;94.30;;;;;;5034810;28;20052;-61
2022/05/16 11:31:58;;;;;;;9.68;3.35;;;23.80;96.50;;;;;;5048014;28;20037;-61
2022/05/16 11:35:12;;;;;;;5.38;2.75;;;23.90;97.10;;;;;;5049838;28;20059;-61
2022/05/16 11:37:56;;;;;;;8.48;3.00;;;23.90;98.00;;;;;;5038583;28;20063;-61
2022/05/16 11:40:32;;;;;;;9.43;2.70;;;24.00;98.80;;;;;;5050597;28;20037;-61
2022/05/16 11:43:24;;;;;;;6.35;2.90;;;24.00;98.60;;;;;;5048979;28;21010;-61
2022/05/16 11:46:09;;;;;;;16.52;3.20;;;24.10;98.20;;;;;;5081069;28;20048;-61
2022/05/16 11:48:43;;;;;;;;;;;24.10;98.40;;;;;;5074076;28;20073;-62
2022/05/16 11:51:48;;;;;;;15.35;3.70;;;24.10;98.00;;;;;;5049502;28;19936;-62
2022/05/16 11:54:19;;;;;;;10.90;3.28;;;24.10;98.10;;;;;;5045300;28;20056;-61
2022/05/16 12:03:07;;;;;;;12.88;2.90;;;24.30;98.00;;;;;;5001638;28;20053;-61
2022/05/16 12:05:49;;;;;;;10.55;2.72;;;24.30;97.00;;;;;;5004500;28;20041;-61
2022/05/16 12:08:33;;;;;;;11.63;3.22;;;24.30;96.40;;;;;;5036844;28;20045;-62
2022/05/16 12:11:02;;;;;;;8.82;3.25;;;24.20;96.50;;;;;;5079168;28;20033;-62
2022/05/16 12:13:32;;;;;;;7.90;2.70;;;24.10;96.90;;;;;;5048256;28;20084;-62
2022/05/16 12:16:15;;;;;;;8.32;2.63;;;24.10;95.60;;;;;;5046237;28;20127;-62
2022/05/16 12:18:43;;;;;;;7.57;2.95;;;24.10;95.00;;;;;;5049316;28;20040;-61
2022/05/16 12:21:13;;;;;;;6.18;2.17;;;24.00;94.70;;;;;;5050017;28;20045;-62
2022/05/16 12:24:01;;;;;;;10.57;2.40;;;23.90;95.10;;;;;;5051958;28;20045;-62
2022/05/16 12:26:27;;;;;;;10.43;2.30;;;24.00;95.60;;;;;;5039259;28;20039;-62
2022/05/16 12:29:08;;;;;;;12.48;2.38;;;24.10;94.90;;;;;;5045330;28;20041;-61
2022/05/16 12:31:48;;;;;;;4.20;2.22;;;24.30;94.30;;;;;;5048963;28;20048;-61
2022/05/16 12:34:14;;;;;;;10.13;2.92;;;24.50;93.30;;;;;;5050452;28;20056;-61
2022/05/16 12:36:40;;;;;;;13.00;3.03;;;24.70;92.40;;;;;;5048901;28;20131;-62
2022/05/16 12:39:25;;;;;;;10.95;2.78;;;24.90;92.40;;;;;;5049259;28;20499;-62
2022/05/16 12:42:16;;;;;;;;;;;25.10;91.70;;;;;;5081118;28;20491;-62
2022/05/16 12:44:59;;;;;;;8.13;2.67;;;25.10;90.60;;;;;;5076219;28;19929;-62
2022/05/16 12:47:37;;;;;;;8.73;2.95;;;25.10;91.20;;;;;;5052959;28;20045;-62
2022/05/16 12:50:12;;;;;;;8.02;2.60;;;25.10;90.80;;;;;;5046762;28;20040;-62
2022/05/16 12:52:46;;;;;;;11.27;3.15;;;25.10;91.20;;;;;;5053228;28;20047;-61
2022/05/16 12:55:33;;;;;;;11.80;2.77;;;25.30;91.10;;;;;;5050420;28;20538;-62
2022/05/16 12:58:18;;;;;;;5.95;2.75;;;25.40;90.70;;;;;;5049843;28;20373;-62
2022/05/16 13:01:03;;;;;;;5.13;2.40;;;25.50;88.80;;;;;;5048673;28;20497;-62
2022/05/16 13:03:44;;;;;;;;;;;25.30;90.10;;;;;;5045696;28;20088;-62
2022/05/16 13:06:29;;;;;;;9.95;3.40;;;25.30;90.40;;;;;;5047422;28;20313;-62
2022/05/16 13:09:07;;;;;;;8.27;2.95;;;25.20;91.20;;;;;;5047980;28;20061;-62
2022/05/16 13:11:42;;;;;;;7.43;3.17;;;25.10;90.30;;;;;;5050469;28;20032;-62
2022/05/16 13:14:07;;;;;;;9.23;2.70;;;25.00;90.90;;;;;;5071101;28;20051;-62
2022/05/16 13:16:36;;;;;;;12.38;2.88;;;25.00;91.40;;;;;;5043883;28;20041;-62
2022/05/16 13:19:08;;;;;;;11.73;3.00;;;25.00;91.80;;;;;;5046565;28;20382;-62
2022/05/16 13:21:45;;;;;;;8.02;3.22;;;24.90;91.90;;;;;;5048469;28;20067;-62
2022/05/16 13:24:14;;;;;;;9.00;4.35;;;24.80;91.70;;;;;;5044643;28;20040;-61
2022/05/16 13:29:33;;;;;;;9.88;3.33;;;24.70;92.00;;;;;;5046157;28;20128;-62
2022/05/16 13:32:06;;;;;;;9.13;3.50;;;24.60;92.30;;;;;;5078461;28;20080;-62
2022/05/16 13:34:35;;;;;;;6.47;3.13;;;24.60;92.20;;;;;;5048973;28;20055;-61
2022/05/16 13:37:06;;;;;;;8.77;3.47;;;24.60;92.40;;;;;;5047879;28;20120;-61
2022/05/16 13:39:40;;;;;;;14.27;5.40;;;24.60;92.80;;;;;;5049991;28;20037;-62
2022/05/16 13:42:06;;;;;;;7.45;4.07;;;24.80;92.00;;;;;;5050436;28;20048;-62